createdAt,value
2019-05-07T00:01:12.413Z,57.92
2019-05-07T00:03:42.230Z,57.87
2019-05-07T00:06:12.425Z,57.77
2019-05-07T00:08:44.722Z,57.96
2019-05-07T00:11:13.005Z,57.77
2019-05-07T00:13:44.319Z,58.25
2019-05-07T00:16:13.408Z,58.17
2019-05-07T00:18:43.025Z,58.07
2019-05-07T00:21:12.706Z,57.91
2019-05-07T00:23:43.302Z,57.61
2019-05-07T00:26:13.318Z,58.05
2019-05-07T00:28:43.401Z,58.20
2019-05-07T00:31:12.622Z,58.47
2019-05-07T00:33:43.242Z,58.51
2019-05-07T00:36:32.345Z,58.57
2019-05-07T00:39:21.966Z,58.61
2019-05-07T00:41:57.784Z,58.90
2019-05-07T00:44:27.550Z,58.58
2019-05-07T00:46:57.054Z,58.50
2019-05-07T00:49:27.985Z,58.74
2019-05-07T00:51:57.188Z,58.89
2019-05-07T00:54:26.690Z,59.19
2019-05-07T00:56:56.162Z,58.84
2019-05-07T00:59:25.674Z,59.08
2019-05-07T01:01:55.443Z,59.18
2019-05-07T01:04:24.800Z,59.07
2019-05-07T01:06:54.021Z,59.50
2019-05-07T01:09:23.253Z,59.27
2019-05-07T01:11:52.571Z,59.10
2019-05-07T01:14:22.892Z,59.33
2019-05-07T01:16:52.919Z,59.42
2019-05-07T01:19:22.314Z,59.05
2019-05-07T01:21:52.492Z,59.15
2019-05-07T01:24:23.244Z,59.33
2019-05-07T01:26:53.069Z,59.34
2019-05-07T01:29:22.771Z,59.28
2019-05-07T01:32:02.994Z,59.38
2019-05-07T01:34:38.144Z,59.59
2019-05-07T01:37:07.596Z,59.34
2019-05-07T01:39:36.817Z,59.52
2019-05-07T01:42:06.014Z,59.45
2019-05-07T01:44:35.227Z,59.48
2019-05-07T01:47:04.957Z,59.58
2019-05-07T01:49:34.185Z,59.58
2019-05-07T01:52:03.968Z,59.64
2019-05-07T01:54:33.616Z,59.41
2019-05-07T01:57:03.120Z,59.41
2019-05-07T01:59:32.441Z,59.03
2019-05-07T02:02:08.171Z,58.82
2019-05-07T02:05:03.255Z,59.01
2019-05-07T02:07:36.561Z,59.32
2019-05-07T02:10:13.154Z,59.43
2019-05-07T02:12:42.665Z,59.16
2019-05-07T02:15:12.114Z,59.09
2019-05-07T02:17:42.966Z,58.70
2019-05-07T02:20:13.164Z,58.63
2019-05-07T02:22:42.873Z,58.73
2019-05-07T02:25:12.601Z,58.95
2019-05-07T02:27:42.328Z,59.32
2019-05-07T02:30:14.839Z,59.27
2019-05-07T02:32:43.488Z,59.26
2019-05-07T02:35:13.655Z,59.10
2019-05-07T02:37:53.428Z,59.22
2019-05-07T02:40:43.119Z,59.32
2019-05-07T02:43:13.992Z,59.11
2019-05-07T02:46:15.947Z,59.27
2019-05-07T02:48:33.513Z,59.17
2019-05-07T02:51:13.167Z,59.31
2019-05-07T02:53:58.029Z,59.14
2019-05-07T02:56:27.596Z,59.00
2019-05-07T02:58:56.786Z,59.19
2019-05-07T03:01:25.958Z,58.97
2019-05-07T03:03:55.193Z,59.13
2019-05-07T03:06:24.370Z,59.21
2019-05-07T03:08:53.677Z,59.02
2019-05-07T03:11:23.055Z,59.52
2019-05-07T03:13:53.785Z,59.57
2019-05-07T03:16:38.124Z,59.75
2019-05-07T03:18:54.132Z,59.89
2019-05-07T03:21:23.765Z,60.02
2019-05-07T03:24:03.109Z,59.80
2019-05-07T03:26:34.593Z,59.79
2019-05-07T03:29:07.297Z,59.88
2019-05-07T03:31:56.796Z,60.19
2019-05-07T03:34:37.368Z,60.09
2019-05-07T03:37:07.832Z,60.06
2019-05-07T03:39:37.278Z,59.93
2019-05-07T03:42:06.456Z,59.75
2019-05-07T03:44:44.539Z,59.43
2019-05-07T03:47:33.176Z,59.45
2019-05-07T03:50:03.391Z,59.63
2019-05-07T03:52:33.522Z,59.38
2019-05-07T03:55:03.824Z,59.39
2019-05-07T03:57:33.863Z,59.34
2019-05-07T04:00:04.284Z,59.38
2019-05-07T04:02:33.743Z,59.27
2019-05-07T04:05:04.319Z,59.56
2019-05-07T04:07:33.947Z,59.46
2019-05-07T04:10:04.374Z,59.41
2019-05-07T04:12:34.416Z,59.33
2019-05-07T04:15:03.920Z,59.13
2019-05-07T04:17:33.792Z,59.10
2019-05-07T04:20:04.596Z,59.27
2019-05-07T04:22:34.854Z,59.26
2019-05-07T04:25:23.932Z,59.24
2019-05-07T04:28:03.786Z,59.15
2019-05-07T04:30:33.275Z,58.79
2019-05-07T04:33:04.171Z,58.96
2019-05-07T04:35:47.570Z,58.59
2019-05-07T04:38:16.740Z,58.56
2019-05-07T04:40:45.970Z,58.86
2019-05-07T04:43:15.143Z,59.03
2019-05-07T04:45:44.361Z,59.07
2019-05-07T04:48:14.345Z,59.59
2019-05-07T04:50:47.745Z,59.91
2019-05-07T04:53:16.641Z,59.74
2019-05-07T04:55:46.207Z,59.38
2019-05-07T04:58:15.743Z,59.15
2019-05-07T05:00:44.911Z,58.83
2019-05-07T05:03:18.442Z,58.62
2019-05-07T05:05:47.608Z,58.59
2019-05-07T05:08:17.164Z,58.51
2019-05-07T05:10:46.674Z,58.28
2019-05-07T05:13:16.170Z,58.40
2019-05-07T05:15:45.348Z,58.30
2019-05-07T05:18:14.581Z,58.01
2019-05-07T05:21:02.902Z,57.68
2019-05-07T05:23:54.137Z,57.54
2019-05-07T05:26:23.614Z,57.07
2019-05-07T05:28:52.846Z,56.63
2019-05-07T05:31:22.443Z,56.56
2019-05-07T05:33:52.625Z,56.18
2019-05-07T05:36:22.342Z,55.70
2019-05-07T05:38:52.856Z,55.05
2019-05-07T05:41:23.091Z,54.86
2019-05-07T05:44:11.908Z,54.73
2019-05-07T05:46:42.835Z,54.11
2019-05-07T05:49:12.422Z,53.81
2019-05-07T05:52:06.375Z,53.21
2019-05-07T05:54:42.738Z,52.92
2019-05-07T05:57:29.522Z,52.22
2019-05-07T06:00:16.234Z,51.91
2019-05-07T06:03:02.923Z,51.34
2019-05-07T06:06:03.029Z,50.98
2019-05-07T06:09:03.006Z,49.40
2019-05-07T06:11:42.979Z,48.69
2019-05-07T06:14:34.029Z,47.41
2019-05-07T06:17:25.736Z,46.33
2019-05-07T06:20:17.076Z,46.37
2019-05-07T06:23:03.344Z,46.12
2019-05-07T06:25:33.436Z,45.05
2019-05-07T06:28:02.819Z,45.05
2019-05-07T06:30:33.823Z,45.42
2019-05-07T06:33:03.107Z,45.37
2019-05-07T06:35:32.525Z,44.79
2019-05-07T06:38:03.179Z,44.23
2019-05-07T06:40:57.387Z,44.12
2019-05-07T06:43:34.664Z,46.48
2019-05-07T06:46:04.438Z,43.00
2019-05-07T06:48:41.821Z,42.73
2019-05-07T06:51:04.883Z,42.69
2019-05-07T06:53:34.116Z,42.50
2019-05-07T06:56:04.218Z,41.43
2019-05-07T06:58:52.617Z,40.96
2019-05-07T07:01:32.331Z,40.44
2019-05-07T07:04:13.072Z,39.79
2019-05-07T07:07:07.180Z,39.84
2019-05-07T07:10:13.621Z,40.30
2019-05-07T07:12:42.908Z,40.06
2019-05-07T07:15:12.253Z,39.25
2019-05-07T07:17:41.975Z,39.20
2019-05-07T07:20:14.455Z,39.15
2019-05-07T07:22:43.633Z,38.53
2019-05-07T07:25:13.181Z,38.69
2019-05-07T07:27:42.968Z,39.21
2019-05-07T07:30:32.601Z,38.93
2019-05-07T07:33:04.689Z,39.19
2019-05-07T07:35:33.932Z,39.17
2019-05-07T07:38:22.442Z,39.80
2019-05-07T07:40:58.864Z,40.17
2019-05-07T07:43:28.045Z,40.71
2019-05-07T07:45:57.555Z,40.56
2019-05-07T07:48:28.338Z,40.17
2019-05-07T07:50:57.659Z,39.10
2019-05-07T07:53:26.849Z,38.40
2019-05-07T07:56:13.689Z,38.57
2019-05-07T07:58:55.224Z,38.55
2019-05-07T08:01:46.430Z,39.24
2019-05-07T08:04:16.110Z,39.85
2019-05-07T08:06:45.936Z,40.35
2019-05-07T08:09:15.720Z,39.34
2019-05-07T08:11:44.950Z,40.03
2019-05-07T08:14:14.400Z,39.99
2019-05-07T08:16:43.910Z,39.97
2019-05-07T08:19:21.519Z,39.55
2019-05-07T08:21:44.067Z,39.99
2019-05-07T08:24:13.536Z,39.98
2019-05-07T08:26:43.000Z,39.77
2019-05-07T08:29:12.233Z,39.55
2019-05-07T08:32:02.346Z,39.83
2019-05-07T08:34:38.393Z,38.65
2019-05-07T08:37:07.846Z,37.39
2019-05-07T08:39:37.073Z,38.35
2019-05-07T08:42:06.265Z,38.13
2019-05-07T08:44:42.960Z,38.55
2019-05-07T08:47:22.809Z,37.67
2019-05-07T08:49:52.418Z,37.56
2019-05-07T08:52:22.361Z,37.30
2019-05-07T08:54:52.627Z,36.84
2019-05-07T08:57:22.743Z,37.33
2019-05-07T09:00:00.502Z,37.47
2019-05-07T09:02:23.029Z,37.94
2019-05-07T09:04:52.633Z,38.14
2019-05-07T09:07:22.112Z,38.32
2019-05-07T09:09:52.350Z,37.72
2019-05-07T09:12:22.946Z,37.85
2019-05-07T09:14:52.958Z,37.70
2019-05-07T09:17:22.981Z,37.76
2019-05-07T09:19:54.819Z,37.64
2019-05-07T09:22:23.808Z,36.66
2019-05-07T09:24:52.994Z,36.81
2019-05-07T09:27:30.175Z,36.90
2019-05-07T09:30:07.315Z,36.57
2019-05-07T09:32:45.005Z,36.19
2019-05-07T09:35:21.728Z,35.94
2019-05-07T09:37:52.729Z,36.02
2019-05-07T09:40:22.747Z,34.80
2019-05-07T09:42:52.540Z,34.12
2019-05-07T09:45:22.558Z,33.95
2019-05-07T09:47:52.319Z,33.45
2019-05-07T09:50:22.034Z,33.55
2019-05-07T09:52:51.960Z,33.69
2019-05-07T09:55:23.142Z,33.68
2019-05-07T09:57:52.790Z,33.77
2019-05-07T10:00:23.073Z,33.10
2019-05-07T10:02:52.800Z,32.28
2019-05-07T10:05:22.202Z,32.88
2019-05-07T10:07:52.627Z,33.36
2019-05-07T10:10:22.337Z,33.59
2019-05-07T10:13:16.280Z,34.22
2019-05-07T10:15:45.917Z,33.84
2019-05-07T10:18:16.802Z,33.37
2019-05-07T10:20:46.036Z,33.67
2019-05-07T10:23:22.787Z,33.35
2019-05-07T10:25:53.907Z,33.42
2019-05-07T10:28:24.051Z,33.42
2019-05-07T10:30:54.659Z,32.45
2019-05-07T10:33:23.940Z,33.28
2019-05-07T10:35:53.496Z,32.95
2019-05-07T10:38:22.685Z,32.40
2019-05-07T10:40:52.220Z,33.06
2019-05-07T10:43:22.269Z,32.60
2019-05-07T10:46:12.634Z,33.72
2019-05-07T10:48:52.200Z,34.00
2019-05-07T10:51:21.789Z,32.55
2019-05-07T10:53:51.793Z,32.52
2019-05-07T10:56:22.271Z,31.80
2019-05-07T10:58:52.202Z,31.23
2019-05-07T11:01:29.113Z,31.60
2019-05-07T11:03:58.300Z,32.32
2019-05-07T11:06:27.522Z,32.67
2019-05-07T11:08:56.773Z,32.52
2019-05-07T11:11:26.016Z,32.61
2019-05-07T11:13:56.150Z,33.22
2019-05-07T11:16:27.976Z,32.27
2019-05-07T11:18:57.444Z,32.14
2019-05-07T11:21:33.536Z,32.69
2019-05-07T11:24:03.414Z,32.99
2019-05-07T11:26:33.023Z,33.17
2019-05-07T11:29:02.539Z,32.88
2019-05-07T11:31:33.177Z,32.64
2019-05-07T11:34:02.946Z,32.99
2019-05-07T11:36:34.359Z,32.39
2019-05-07T11:39:04.804Z,32.74
2019-05-07T11:41:51.834Z,32.90
2019-05-07T11:44:24.094Z,33.71
2019-05-07T11:47:22.373Z,32.86
2019-05-07T11:50:08.644Z,33.02
2019-05-07T11:52:42.521Z,32.47
2019-05-07T11:55:12.120Z,33.23
2019-05-07T11:57:44.187Z,32.70
2019-05-07T12:00:21.930Z,32.65
2019-05-07T12:02:51.903Z,32.19
2019-05-07T12:05:22.676Z,31.67
2019-05-07T12:07:51.986Z,31.04
2019-05-07T12:10:22.258Z,31.21
2019-05-07T12:12:52.126Z,32.09
2019-05-07T12:15:21.838Z,32.06
2019-05-07T12:17:52.126Z,32.78
2019-05-07T12:20:21.943Z,31.74
2019-05-07T12:22:52.191Z,31.20
2019-05-07T12:25:22.799Z,31.18
2019-05-07T12:27:53.183Z,31.01
2019-05-07T12:30:48.138Z,31.59
2019-05-07T12:33:36.552Z,31.68
2019-05-07T12:36:07.900Z,31.25
2019-05-07T12:38:37.371Z,31.26
2019-05-07T12:41:25.830Z,30.90
2019-05-07T12:43:55.007Z,31.21
2019-05-07T12:46:24.252Z,31.40
2019-05-07T12:48:53.431Z,31.71
2019-05-07T12:51:33.518Z,31.30
2019-05-07T12:53:58.637Z,30.87
2019-05-07T12:56:27.881Z,30.06
2019-05-07T12:58:57.054Z,30.20
2019-05-07T13:01:57.752Z,29.68
2019-05-07T13:04:28.379Z,30.34
2019-05-07T13:07:07.023Z,31.51
2019-05-07T13:09:36.257Z,30.17
2019-05-07T13:12:05.690Z,30.56
2019-05-07T13:14:34.893Z,30.44
2019-05-07T13:17:04.393Z,30.61
2019-05-07T13:19:33.579Z,30.68
2019-05-07T13:22:02.821Z,30.20
2019-05-07T13:24:32.270Z,30.09
2019-05-07T13:27:03.303Z,29.93
2019-05-07T13:29:32.738Z,30.02
2019-05-07T13:32:04.236Z,29.40
2019-05-07T13:34:34.294Z,29.42
2019-05-07T13:37:09.082Z,29.88
2019-05-07T13:39:42.958Z,30.09
2019-05-07T13:42:31.810Z,29.67
2019-05-07T13:45:06.197Z,30.34
2019-05-07T13:47:37.694Z,29.59
2019-05-07T13:50:07.805Z,29.48
2019-05-07T13:52:36.990Z,29.20
2019-05-07T13:55:07.079Z,29.26
2019-05-07T13:57:36.267Z,29.19
2019-05-07T14:00:07.025Z,29.37
2019-05-07T14:02:36.163Z,29.14
2019-05-07T14:05:06.022Z,29.41
2019-05-07T14:07:36.962Z,29.26
2019-05-07T14:10:06.563Z,28.95
2019-05-07T14:12:35.728Z,28.85
2019-05-07T14:15:05.303Z,29.38
2019-05-07T14:17:34.761Z,29.60
2019-05-07T14:20:04.973Z,29.43
2019-05-07T14:22:34.219Z,29.28
2019-05-07T14:25:03.731Z,29.42
2019-05-07T14:27:33.064Z,29.65
2019-05-07T14:30:02.837Z,29.51
2019-05-07T14:32:38.719Z,29.49
2019-05-07T14:35:27.177Z,29.06
2019-05-07T14:38:06.192Z,29.58
2019-05-07T14:40:35.440Z,28.97
2019-05-07T14:43:09.589Z,29.60
2019-05-07T14:45:39.112Z,29.60
2019-05-07T14:48:08.299Z,28.73
2019-05-07T14:50:37.550Z,28.74
2019-05-07T14:53:07.284Z,28.02
2019-05-07T14:55:36.548Z,27.33
2019-05-07T14:58:05.734Z,28.26
2019-05-07T15:00:35.366Z,27.94
2019-05-07T15:03:04.647Z,27.36
2019-05-07T15:05:33.844Z,25.73
2019-05-07T15:08:10.703Z,26.77
2019-05-07T15:10:34.546Z,28.15
2019-05-07T15:13:03.771Z,26.15
2019-05-07T15:15:32.949Z,26.28
2019-05-07T15:18:15.816Z,26.13
2019-05-07T15:20:45.080Z,25.28
2019-05-07T15:23:24.188Z,24.44
2019-05-07T15:25:53.375Z,24.26
2019-05-07T15:28:22.951Z,23.92
2019-05-07T15:31:04.597Z,24.17
2019-05-07T15:33:34.110Z,24.57
2019-05-07T15:36:04.900Z,24.90
2019-05-07T15:38:34.252Z,24.74
2019-05-07T15:41:03.432Z,25.20
2019-05-07T15:43:32.610Z,25.58
2019-05-07T15:46:02.173Z,25.98
2019-05-07T15:48:32.680Z,25.75
2019-05-07T15:53:56.754Z,24.91
2019-05-07T15:56:26.254Z,23.97
2019-05-07T15:58:55.710Z,22.91
2019-05-07T16:01:25.233Z,22.23
2019-05-07T16:03:54.837Z,20.84
2019-05-07T16:06:24.443Z,19.39
2019-05-07T16:08:57.262Z,18.34
2019-05-07T16:11:26.490Z,17.17
2019-05-07T16:14:14.648Z,16.04
2019-05-07T16:16:46.257Z,15.62
2019-05-07T16:19:20.122Z,15.09
2019-05-07T16:21:49.622Z,14.54
2019-05-07T16:24:18.807Z,14.03
2019-05-07T16:26:48.043Z,13.82
2019-05-07T16:29:17.360Z,13.71
2019-05-07T16:31:48.814Z,13.89
2019-05-07T16:34:17.767Z,13.66
2019-05-07T16:36:47.014Z,13.88
2019-05-07T16:39:16.191Z,14.12
2019-05-07T16:41:45.371Z,13.85
2019-05-07T16:44:14.883Z,14.33
2019-05-07T16:46:44.051Z,15.21
2019-05-07T16:49:13.324Z,15.62
2019-05-07T16:51:44.702Z,15.60
2019-05-07T16:54:13.465Z,16.01
2019-05-07T16:57:02.948Z,16.96
2019-05-07T16:59:32.595Z,17.25
2019-05-07T17:02:06.002Z,17.48
2019-05-07T17:04:35.511Z,17.37
2019-05-07T17:07:06.334Z,16.98
2019-05-07T17:09:35.650Z,16.93
2019-05-07T17:12:07.583Z,18.03
2019-05-07T17:14:37.151Z,19.77
2019-05-07T17:17:06.337Z,21.41
2019-05-07T17:19:35.848Z,22.84
2019-05-07T17:22:06.630Z,24.11
2019-05-07T17:24:35.924Z,25.24
2019-05-07T17:27:05.097Z,26.09
2019-05-07T17:29:34.683Z,26.85
2019-05-07T17:32:04.092Z,27.50
2019-05-07T17:34:33.358Z,28.12
2019-05-07T17:37:02.840Z,28.62
2019-05-07T17:39:32.292Z,29.32
2019-05-07T17:42:02.578Z,29.31
2019-05-07T17:44:32.364Z,29.60
2019-05-07T17:47:02.089Z,30.22
2019-05-07T17:49:32.439Z,30.37
2019-05-07T17:52:02.990Z,30.70
2019-05-07T17:54:32.212Z,30.85
2019-05-07T17:57:02.008Z,30.96
2019-05-07T17:59:32.119Z,31.15
2019-05-07T18:02:14.158Z,31.39
2019-05-07T18:04:51.040Z,31.54
2019-05-07T18:07:16.918Z,31.84
2019-05-07T18:09:46.163Z,32.16
2019-05-07T18:12:15.702Z,32.51
2019-05-07T18:14:45.155Z,32.60
2019-05-07T18:17:48.549Z,32.77
2019-05-07T18:20:18.007Z,33.07
2019-05-07T18:22:47.268Z,33.33
2019-05-07T18:25:16.732Z,33.72
2019-05-07T18:27:46.039Z,33.86
2019-05-07T18:30:15.906Z,33.95
2019-05-07T18:32:49.448Z,34.06
2019-05-07T18:35:18.960Z,34.23
2019-05-07T18:37:52.497Z,34.46
2019-05-07T18:40:22.643Z,34.50
2019-05-07T18:42:52.481Z,35.11
2019-05-07T18:45:21.939Z,34.95
2019-05-07T18:47:51.829Z,35.21
2019-05-07T18:50:22.611Z,35.43
2019-05-07T18:52:52.355Z,35.50
2019-05-07T18:55:22.619Z,35.59
2019-05-07T18:57:52.241Z,35.92
2019-05-07T19:00:27.879Z,35.95
2019-05-07T19:02:57.410Z,36.16
2019-05-07T19:05:27.232Z,36.26
2019-05-07T19:08:07.125Z,36.30
2019-05-07T19:10:28.616Z,36.74
2019-05-07T19:12:57.854Z,36.85
2019-05-07T19:15:27.515Z,37.30
2019-05-07T19:17:56.755Z,37.39
2019-05-07T19:20:26.043Z,37.42
2019-05-07T19:22:55.286Z,37.45
2019-05-07T19:25:24.474Z,37.87
2019-05-07T19:27:53.784Z,37.92
2019-05-07T19:30:23.271Z,38.10
2019-05-07T19:32:56.203Z,38.27
2019-05-07T19:35:25.507Z,38.48
2019-05-07T19:37:54.689Z,38.36
2019-05-07T19:40:23.920Z,38.39
2019-05-07T19:42:53.383Z,38.65
2019-05-07T19:45:24.544Z,38.82
2019-05-07T19:47:53.523Z,38.84
2019-05-07T19:50:23.447Z,39.12
2019-05-07T19:52:52.964Z,39.15
2019-05-07T19:55:22.175Z,39.13
2019-05-07T19:57:58.515Z,39.13
2019-05-07T20:00:28.936Z,39.18
2019-05-07T20:03:00.719Z,39.35
2019-05-07T20:05:32.164Z,39.41
2019-05-07T20:08:04.482Z,39.75
2019-05-07T20:10:42.203Z,39.43
2019-05-07T20:13:12.461Z,39.72
2019-05-07T20:15:44.158Z,39.78
2019-05-07T20:18:13.678Z,39.59
2019-05-07T20:20:42.860Z,39.66
2019-05-07T20:23:12.327Z,40.12
2019-05-07T20:25:42.076Z,40.21
2019-05-07T20:28:12.754Z,40.32
2019-05-07T20:30:42.056Z,40.72
2019-05-07T20:33:11.502Z,40.59
2019-05-07T20:35:43.282Z,40.59
2019-05-07T20:38:11.920Z,40.55
2019-05-07T20:40:42.431Z,40.49
2019-05-07T20:43:12.672Z,40.61
2019-05-07T20:45:42.553Z,40.79
2019-05-07T20:48:12.401Z,40.92
2019-05-07T20:50:42.437Z,41.02
2019-05-07T20:53:11.608Z,40.63
2019-05-07T20:55:55.444Z,40.49
2019-05-07T20:58:24.630Z,40.56
2019-05-07T21:00:54.216Z,40.54
2019-05-07T21:03:24.089Z,40.71
2019-05-07T21:05:53.973Z,40.49
2019-05-07T21:08:23.267Z,40.70
2019-05-07T21:10:53.488Z,41.06
2019-05-07T21:13:30.322Z,43.74
2019-05-07T21:15:54.189Z,41.85
2019-05-07T21:18:23.699Z,41.69
2019-05-07T21:20:53.203Z,42.04
2019-05-07T21:23:23.292Z,42.30
2019-05-07T21:25:53.081Z,42.53
2019-05-07T21:28:22.588Z,42.81
2019-05-07T21:30:52.321Z,42.89
2019-05-07T21:33:22.922Z,43.01
2019-05-07T21:35:52.622Z,43.42
2019-05-07T21:38:22.562Z,43.35
2019-05-07T21:40:51.823Z,43.23
2019-05-07T21:43:22.193Z,43.36
2019-05-07T21:45:53.015Z,43.55
2019-05-07T21:48:22.510Z,43.56
2019-05-07T21:50:52.047Z,43.72
2019-05-07T21:53:45.518Z,43.75
2019-05-07T21:56:23.153Z,43.64
2019-05-07T21:59:03.034Z,43.81
2019-05-07T22:01:43.669Z,43.72
2019-05-07T22:04:13.131Z,43.83
2019-05-07T22:06:45.444Z,43.89
2019-05-07T22:09:14.332Z,44.21
2019-05-07T22:11:44.127Z,44.06
2019-05-07T22:14:13.364Z,43.89
2019-05-07T22:16:42.901Z,43.70
2019-05-07T22:19:12.359Z,43.97
2019-05-07T22:21:43.239Z,44.08
2019-05-07T22:24:15.047Z,44.48
2019-05-07T22:26:43.574Z,44.20
2019-05-07T22:29:12.797Z,43.96
2019-05-07T22:32:04.271Z,44.29
2019-05-07T22:34:52.062Z,44.34
2019-05-07T22:37:22.067Z,44.56
2019-05-07T22:39:51.347Z,44.55
2019-05-07T22:42:22.396Z,44.54
2019-05-07T22:44:51.559Z,44.91
2019-05-07T22:47:22.765Z,45.08
2019-05-07T22:49:53.512Z,45.26
2019-05-07T22:52:23.078Z,45.63
2019-05-07T22:54:52.262Z,44.81
2019-05-07T22:57:34.232Z,45.27
2019-05-07T23:00:04.564Z,45.32
2019-05-07T23:02:34.026Z,45.51
2019-05-07T23:05:03.501Z,45.65
2019-05-07T23:07:32.970Z,45.73
2019-05-07T23:10:02.837Z,45.91
2019-05-07T23:12:32.785Z,45.91
2019-05-07T23:15:02.909Z,45.97
2019-05-07T23:17:32.732Z,46.15
2019-05-07T23:20:02.206Z,46.24
2019-05-07T23:22:32.435Z,45.99
2019-05-07T23:25:01.942Z,46.35
2019-05-07T23:27:32.572Z,45.93
2019-05-07T23:30:02.693Z,45.74
2019-05-07T23:32:32.972Z,46.18
2019-05-07T23:35:02.505Z,46.54
2019-05-07T23:37:33.089Z,46.95
2019-05-07T23:40:06.124Z,47.35
2019-05-07T23:42:36.525Z,47.74
2019-05-07T23:45:06.503Z,47.96
2019-05-07T23:47:35.749Z,48.19
2019-05-07T23:50:05.561Z,48.38
2019-05-07T23:52:35.127Z,48.43
2019-05-07T23:55:04.802Z,48.44
2019-05-07T23:57:34.040Z,48.22
